createdAt,value
2023-01-13T00:04:37.564Z,6.60
2023-01-13T00:09:37.590Z,6.60
2023-01-13T00:14:37.646Z,6.61
2023-01-13T00:19:37.779Z,6.60
2023-01-13T00:24:37.469Z,6.64
2023-01-13T00:29:37.663Z,6.59
2023-01-13T00:34:37.704Z,6.55
2023-01-13T00:39:37.817Z,6.56
2023-01-13T00:44:37.484Z,6.56
2023-01-13T00:49:37.642Z,6.53
2023-01-13T00:54:37.441Z,6.47
2023-01-13T00:59:37.534Z,6.47
2023-01-13T01:04:37.887Z,6.41
2023-01-13T01:09:38.471Z,6.38
2023-01-13T01:14:37.458Z,6.34
2023-01-13T01:19:37.857Z,6.19
2023-01-13T01:24:37.701Z,6.17
2023-01-13T01:29:37.616Z,6.16
2023-01-13T01:34:38.243Z,6.13
2023-01-13T01:39:37.737Z,6.15
2023-01-13T01:44:52.538Z,6.20
2023-01-13T01:49:38.956Z,6.19
2023-01-13T01:54:42.643Z,6.13
2023-01-13T01:59:38.499Z,6.15
2023-01-13T02:04:40.072Z,6.22
2023-01-13T02:09:37.526Z,6.17
2023-01-13T02:14:38.721Z,6.10
2023-01-13T02:19:57.266Z,6.09
2023-01-13T02:24:57.199Z,6.14
2023-01-13T02:30:05.805Z,6.10
2023-01-13T02:34:41.986Z,6.08
2023-01-13T02:39:44.155Z,6.14
2023-01-13T02:44:43.177Z,6.10
2023-01-13T02:49:43.434Z,6.08
2023-01-13T02:54:42.612Z,6.01
2023-01-13T02:59:39.939Z,5.99
2023-01-13T03:04:48.525Z,6.00
2023-01-13T03:09:43.345Z,6.05
2023-01-13T03:14:45.138Z,6.08
2023-01-13T03:19:43.142Z,6.08
2023-01-13T03:24:41.837Z,6.07
2023-01-13T03:29:41.276Z,6.07
2023-01-13T03:34:45.087Z,6.09
2023-01-13T03:39:42.653Z,6.10
2023-01-13T03:44:43.451Z,6.10
2023-01-13T03:49:43.924Z,6.15
2023-01-13T03:54:44.250Z,6.13
2023-01-13T03:59:42.123Z,6.18
2023-01-13T04:04:42.931Z,6.14
2023-01-13T04:09:48.787Z,6.10
2023-01-13T04:14:38.382Z,5.98
2023-01-13T04:19:37.673Z,5.88
2023-01-13T04:24:37.294Z,5.84
2023-01-13T04:29:37.427Z,5.79
2023-01-13T04:34:38.330Z,5.81
2023-01-13T04:39:37.383Z,5.87
2023-01-13T04:44:37.542Z,5.88
2023-01-13T04:49:38.516Z,5.88
2023-01-13T04:54:37.500Z,5.89
2023-01-13T04:59:37.458Z,5.89
2023-01-13T05:04:37.594Z,5.91
2023-01-13T05:09:37.253Z,5.89
2023-01-13T05:14:47.269Z,5.89
2023-01-13T05:19:38.199Z,5.95
2023-01-13T05:24:47.512Z,6.02
2023-01-13T05:29:37.274Z,6.08
2023-01-13T05:34:37.676Z,6.05
2023-01-13T05:39:47.199Z,6.07
2023-01-13T05:44:37.254Z,6.10
2023-01-13T05:49:37.457Z,6.13
2023-01-13T05:54:37.235Z,6.14
2023-01-13T05:59:37.381Z,6.13
2023-01-13T06:04:37.951Z,6.16
2023-01-13T06:09:37.343Z,6.16
2023-01-13T06:14:39.089Z,6.14
2023-01-13T06:19:37.989Z,6.13
2023-01-13T06:24:37.311Z,6.17
2023-01-13T06:29:37.447Z,6.20
2023-01-13T06:34:39.181Z,6.18
2023-01-13T06:39:37.281Z,6.15
2023-01-13T06:44:38.704Z,6.17
2023-01-13T06:49:37.491Z,6.16
2023-01-13T06:54:37.292Z,6.17
2023-01-13T06:59:37.436Z,6.19
2023-01-13T07:04:37.547Z,6.18
2023-01-13T07:09:37.180Z,6.25
2023-01-13T07:14:47.126Z,6.29
2023-01-13T07:19:37.371Z,6.28
2023-01-13T07:24:37.722Z,6.27
2023-01-13T07:29:37.148Z,6.31
2023-01-13T07:34:37.577Z,6.37
2023-01-13T07:39:37.214Z,6.43
2023-01-13T07:44:37.399Z,6.43
2023-01-13T07:49:37.481Z,6.49
2023-01-13T07:54:41.073Z,6.49
2023-01-13T07:59:37.228Z,6.55
2023-01-13T08:04:37.791Z,6.56
2023-01-13T08:09:37.115Z,6.56
2023-01-13T08:14:37.152Z,6.60
2023-01-13T08:19:37.594Z,6.61
2023-01-13T08:24:37.175Z,6.67
2023-01-13T08:29:37.179Z,6.70
2023-01-13T08:34:37.447Z,6.74
2023-01-13T08:39:37.102Z,6.78
2023-01-13T08:44:37.165Z,6.85
2023-01-13T08:49:37.730Z,6.87
2023-01-13T08:54:38.019Z,6.90
2023-01-13T08:59:37.194Z,6.89
2023-01-13T09:04:38.277Z,6.92
2023-01-13T09:09:37.638Z,6.99
2023-01-13T09:14:38.089Z,7.07
2023-01-13T09:19:37.500Z,7.08
2023-01-13T09:24:34.346Z,7.12
2023-01-13T09:24:36.813Z,7.12
2023-01-13T09:29:37.406Z,7.14
2023-01-13T09:34:49.335Z,7.16
2023-01-13T09:39:37.127Z,7.21
2023-01-13T09:44:45.312Z,7.27
2023-01-13T09:49:40.340Z,7.32
2023-01-13T09:54:41.974Z,7.38
2023-01-13T09:56:58.355Z,7.38
2023-01-13T09:59:38.268Z,7.44
2023-01-13T10:04:37.476Z,7.46
2023-01-13T10:09:47.422Z,7.52
2023-01-13T10:14:41.298Z,7.58
2023-01-13T10:19:43.302Z,7.63
2023-01-13T10:24:56.951Z,7.67
2023-01-13T10:29:37.209Z,7.71
2023-01-13T10:34:46.260Z,7.76
2023-01-13T10:39:40.043Z,7.84
2023-01-13T10:44:46.285Z,7.93
2023-01-13T10:49:37.698Z,7.95
2023-01-13T10:54:50.356Z,7.95
2023-01-13T10:59:36.991Z,7.99
2023-01-13T11:04:39.815Z,8.15
2023-01-13T11:09:37.025Z,8.21
2023-01-13T11:14:40.835Z,8.22
2023-01-13T11:19:41.210Z,8.25
2023-01-13T11:24:43.918Z,8.34
2023-01-13T11:29:42.026Z,8.45
2023-01-13T11:34:40.635Z,8.53
2023-01-13T11:39:46.798Z,8.60
2023-01-13T11:44:44.105Z,8.48
2023-01-13T11:49:37.672Z,8.57
2023-01-13T11:54:48.845Z,8.65
2023-01-13T11:59:49.932Z,8.66
2023-01-13T12:04:42.925Z,8.58
2023-01-13T12:09:47.073Z,8.60
2023-01-13T12:14:49.817Z,8.56
2023-01-13T12:19:37.964Z,8.57
2023-01-13T12:24:43.382Z,8.58
2023-01-13T12:29:38.169Z,8.55
2023-01-13T12:34:49.231Z,8.54
2023-01-13T12:39:43.528Z,8.54
2023-01-13T12:44:37.263Z,8.55
2023-01-13T12:49:37.231Z,8.46
2023-01-13T12:54:56.870Z,8.45
2023-01-13T12:59:36.938Z,8.53
2023-01-13T13:04:43.371Z,8.61
2023-01-13T13:09:42.772Z,8.69
2023-01-13T13:14:56.922Z,8.71
2023-01-13T13:19:41.681Z,8.69
2023-01-13T13:24:38.933Z,8.71
2023-01-13T13:29:45.691Z,8.70
2023-01-13T13:34:44.497Z,8.70
2023-01-13T13:39:51.182Z,8.73
2023-01-13T13:44:49.633Z,8.67
2023-01-13T13:49:40.614Z,8.69
2023-01-13T13:54:40.560Z,8.60
2023-01-13T13:56:16.070Z,8.60
2023-01-13T13:59:38.727Z,8.63
2023-01-13T14:04:38.123Z,8.61
2023-01-13T14:09:43.217Z,8.58
2023-01-13T14:14:41.782Z,8.62
2023-01-13T14:19:41.496Z,8.65
2023-01-13T14:24:45.627Z,8.65
2023-01-13T14:29:37.061Z,8.59
2023-01-13T14:34:37.945Z,8.61
2023-01-13T14:39:39.747Z,8.60
2023-01-13T14:44:41.976Z,8.60
2023-01-13T14:49:39.389Z,8.61
2023-01-13T14:54:42.234Z,8.62
2023-01-13T14:59:50.590Z,8.62
2023-01-13T15:04:37.250Z,8.66
2023-01-13T15:09:40.626Z,8.66
2023-01-13T15:14:36.762Z,8.68
2023-01-13T15:19:36.843Z,8.69
2023-01-13T15:24:36.995Z,8.69
2023-01-13T15:29:36.771Z,8.77
2023-01-13T15:34:37.045Z,8.77
2023-01-13T15:39:37.254Z,8.76
2023-01-13T15:44:46.837Z,8.73
2023-01-13T15:49:41.284Z,8.77
2023-01-13T15:54:36.976Z,8.76
2023-01-13T15:59:36.717Z,8.69
2023-01-13T16:04:36.922Z,8.68
2023-01-13T16:09:37.095Z,8.68
2023-01-13T16:14:37.263Z,8.71
2023-01-13T16:19:36.686Z,8.72
2023-01-13T16:24:36.938Z,8.69
2023-01-13T16:29:36.760Z,8.67
2023-01-13T16:34:36.882Z,8.63
2023-01-13T16:39:36.986Z,8.64
2023-01-13T16:44:36.816Z,8.60
2023-01-13T16:49:36.828Z,8.60
2023-01-13T16:54:36.988Z,8.58
2023-01-13T16:59:36.725Z,8.55
2023-01-13T17:04:36.877Z,8.53
2023-01-13T17:09:36.904Z,8.57
2023-01-13T17:14:36.734Z,8.60
2023-01-13T17:19:36.808Z,8.59
2023-01-13T17:24:37.133Z,8.54
2023-01-13T17:29:37.730Z,8.59
2023-01-13T17:34:39.308Z,8.64
2023-01-13T17:39:36.976Z,8.69
2023-01-13T17:44:37.516Z,8.75
2023-01-13T17:49:36.683Z,8.79
2023-01-13T17:54:38.925Z,8.82
2023-01-13T17:59:36.842Z,8.82
2023-01-13T18:04:36.756Z,8.72
2023-01-13T18:09:37.247Z,8.66
2023-01-13T18:14:36.727Z,8.60
2023-01-13T18:19:46.719Z,8.56
2023-01-13T18:24:46.892Z,8.53
2023-01-13T18:29:36.682Z,8.48
2023-01-13T18:34:37.635Z,8.35
2023-01-13T18:39:37.169Z,8.19
2023-01-13T18:44:36.720Z,8.13
2023-01-13T18:49:36.746Z,8.08
2023-01-13T18:54:36.867Z,8.04
2023-01-13T18:59:36.756Z,8.00
2023-01-13T19:04:36.800Z,7.99
2023-01-13T19:09:37.647Z,7.94
2023-01-13T19:14:36.717Z,7.90
2023-01-13T19:19:37.618Z,7.88
2023-01-13T19:24:36.829Z,7.87
2023-01-13T19:29:36.979Z,7.83
2023-01-13T19:34:36.950Z,7.86
2023-01-13T19:39:37.191Z,7.86
2023-01-13T19:44:46.559Z,7.86
2023-01-13T19:49:37.976Z,7.87
2023-01-13T19:54:37.064Z,7.90
2023-01-13T19:59:39.896Z,7.98
2023-01-13T20:04:37.534Z,8.03
2023-01-13T20:09:40.007Z,8.09
2023-01-13T20:19:36.751Z,8.21
2023-01-13T20:24:36.793Z,8.26
2023-01-13T20:29:37.040Z,8.28
2023-01-13T20:34:36.577Z,8.31
2023-01-13T20:39:36.989Z,8.32
2023-01-13T20:44:36.831Z,8.36
2023-01-13T20:49:36.714Z,8.41
2023-01-13T20:54:37.956Z,8.39
2023-01-13T20:59:37.647Z,8.37
2023-01-13T21:04:36.618Z,8.35
2023-01-13T21:09:37.157Z,8.36
2023-01-13T21:14:47.080Z,8.35
2023-01-13T21:19:36.555Z,8.34
2023-01-13T21:24:37.148Z,8.30
2023-01-13T21:29:36.689Z,8.27
2023-01-13T21:34:36.652Z,8.24
2023-01-13T21:39:37.089Z,8.22
2023-01-13T21:44:48.481Z,8.17
2023-01-13T21:49:42.971Z,8.12
2023-01-13T21:54:46.920Z,8.10
2023-01-13T21:59:36.538Z,8.05
2023-01-13T22:04:36.563Z,7.99
2023-01-13T22:09:36.908Z,7.92
2023-01-13T22:14:37.187Z,7.92
2023-01-13T22:19:41.195Z,7.91
2023-01-13T22:24:42.086Z,7.86
2023-01-13T22:29:37.763Z,7.82
2023-01-13T22:34:36.631Z,7.74
2023-01-13T22:39:37.080Z,7.71
2023-01-13T22:44:36.585Z,7.67
2023-01-13T22:49:36.748Z,7.65
2023-01-13T22:54:36.877Z,7.63
2023-01-13T22:59:36.732Z,7.62
2023-01-13T23:04:36.781Z,7.59
2023-01-13T23:09:40.872Z,7.58
2023-01-13T23:14:36.453Z,7.56
2023-01-13T23:19:36.579Z,7.55
2023-01-13T23:24:37.156Z,7.52
2023-01-13T23:29:36.913Z,7.53
2023-01-13T23:34:36.657Z,7.53
2023-01-13T23:39:36.721Z,7.51
2023-01-13T23:44:36.521Z,7.47
2023-01-13T23:49:36.727Z,7.41
2023-01-13T23:54:37.003Z,7.32
2023-01-13T23:59:36.440Z,7.30
